KDRT

Del Rio International Airport

Del Rio, Texas, USA
METAR KDRT 230153Z AUTO 15007KT 10SM CLR 28/18 A2985 RMK AO2 SLP093 T02780183
Observed Flight Rules
May-23 @ 01:53 UTC (an hour ago) Visual Flight Rules
Wind Visibility Clouds
150° at 7 knots 10 miles
  • Clear skies
Temperatures Readings
Current 28°C / 82°F
Dewpoint 18°C / 64°F
Humidity 55%
Altimeter 29.85" Hg
Pressure 1009.3 hPa
Elevation 313
METAR KDRT 230153Z AUTO 15007KT 10SM CLR 28/18 A2985 RMK AO2 SLP093 T02780183
Observed Flight Rules
May-23 @ 01:53 UTC
(an hour ago)
VFR
Wind Visibility
150° at 7 knots 10 miles
Clouds
  • Clear skies
Temperature Dewpoint
28°C / 82°F 18°C / 64°F
Humidity Altimeter Pressure
55% 29.85" Hg 1009.3 hPa